Time;durP1;ratioP1;P1;durP2;ratioP2;P2;SDS_P1;SDS_P2;PMS_P1;PMS_P2;Temp;Humidity;BMP_temperature;BMP_pressure;BME280_temperature;BME280_humidity;BME280_pressure;Samples;Min_cycle;Max_cycle;Signal;HPM_P1;HPM_P2
2023/06/29 00:01:58;;;;;;;1999.90;999.90;;;;;;;15.12;100.00;98129.13;4992254;28;20445;-75
2023/06/29 00:04:25;;;;;;;1999.90;999.90;;;;;;;15.17;100.00;98128.94;4991039;28;20408;-75
2023/06/29 00:06:52;;;;;;;1999.90;999.90;;;;;;;15.16;100.00;98129.28;4992101;28;20101;-75
2023/06/29 00:09:19;;;;;;;1999.90;999.90;;;;;;;15.18;100.00;98129.78;4990868;28;20026;-74
2023/06/29 00:11:44;;;;;;;1999.90;999.90;;;;;;;15.11;100.00;98124.72;4990749;28;20034;-74
2023/06/29 00:14:10;;;;;;;1999.90;999.90;;;;;;;15.17;100.00;98117.13;4990788;28;20502;-77
2023/06/29 00:16:35;;;;;;;1999.90;999.90;;;;;;;15.12;100.00;98107.06;4990800;28;20109;-75
2023/06/29 00:19:01;;;;;;;1999.90;999.90;;;;;;;15.10;100.00;98106.56;4990794;28;20034;-74
2023/06/29 00:21:30;;;;;;;1999.90;999.90;;;;;;;15.29;100.00;98125.56;4990607;28;20078;-74
2023/06/29 00:23:55;;;;;;;1999.90;999.90;;;;;;;15.22;100.00;98123.31;4991376;28;20487;-74
2023/06/29 00:26:21;;;;;;;1999.90;999.90;;;;;;;15.08;100.00;98121.78;4990825;28;20039;-75
2023/06/29 00:28:46;;;;;;;1999.90;999.90;;;;;;;15.08;100.00;98119.84;4990767;28;20022;-74
2023/06/29 00:31:11;;;;;;;1999.90;999.90;;;;;;;14.99;100.00;98119.03;4990528;28;20047;-75
2023/06/29 00:33:37;;;;;;;1999.90;999.90;;;;;;;14.87;100.00;98125.16;4990755;28;20030;-74
2023/06/29 00:36:02;;;;;;;1999.90;999.90;;;;;;;14.93;100.00;98126.63;4991523;28;20080;-75
2023/06/29 00:38:28;;;;;;;1999.90;999.90;;;;;;;15.00;100.00;98117.91;4994400;28;20026;-75
2023/06/29 00:40:53;;;;;;;1999.90;999.90;;;;;;;15.03;100.00;98120.03;4994699;28;20116;-76
2023/06/29 00:43:18;;;;;;;1999.90;999.90;;;;;;;14.94;100.00;98125.47;4994384;28;21275;-75
2023/06/29 00:45:43;;;;;;;1999.90;999.90;;;;;;;14.99;100.00;98130.84;4994354;28;20029;-75
2023/06/29 00:48:09;;;;;;;1999.90;999.90;;;;;;;14.95;100.00;98137.31;4996102;28;20038;-74
2023/06/29 00:50:35;;;;;;;1999.90;999.90;;;;;;;14.92;100.00;98126.94;4994818;28;20117;-76
2023/06/29 00:53:01;;;;;;;1999.90;999.90;;;;;;;14.94;100.00;98139.25;4994890;28;20057;-75
2023/06/29 00:55:27;;;;;;;1999.90;999.90;;;;;;;15.00;100.00;98135.22;4994660;28;20105;-76
2023/06/29 00:57:52;;;;;;;1999.90;999.90;;;;;;;14.89;100.00;98133.91;4997862;28;20391;-76
2023/06/29 01:00:18;;;;;;;1999.90;999.90;;;;;;;14.79;100.00;98127.84;4994725;28;20038;-75
2023/06/29 01:02:43;;;;;;;1999.90;999.90;;;;;;;14.89;100.00;98128.38;4997199;28;20034;-77
2023/06/29 01:05:10;;;;;;;1999.90;999.90;;;;;;;14.93;100.00;98145.09;5005775;28;20022;-77
2023/06/29 01:08:00;;;;;;;1999.90;999.90;;;;;;;14.86;100.00;98133.72;5006914;28;20030;-77
2023/06/29 01:10:29;;;;;;;1999.90;999.90;;;;;;;14.73;100.00;98131.88;4995920;28;20026;-75
2023/06/29 01:12:56;;;;;;;1999.90;999.90;;;;;;;14.76;100.00;98131.25;4993653;28;20038;-75
2023/06/29 01:15:22;;;;;;;1999.90;999.90;;;;;;;14.64;100.00;98123.59;5005938;28;20026;-75
2023/06/29 01:17:51;;;;;;;1999.90;999.90;;;;;;;14.60;100.00;98119.84;5012945;28;20045;-75
2023/06/29 01:20:18;;;;;;;1999.90;999.90;;;;;;;14.73;100.00;98123.63;5013300;28;20470;-75
2023/06/29 01:22:55;;;;;;;1999.90;999.90;;;;;;;14.71;100.00;98136.91;5013916;28;20030;-75
2023/06/29 01:25:22;;;;;;;1999.90;999.90;;;;;;;14.69;100.00;98137.22;5015312;28;20034;-74
2023/06/29 01:27:47;;;;;;;1999.90;999.90;;;;;;;14.71;100.00;98134.97;4995386;28;20094;-75
2023/06/29 01:30:13;;;;;;;1999.90;999.90;;;;;;;14.61;100.00;98129.72;5012894;28;20080;-75
2023/06/29 01:32:39;;;;;;;1999.90;999.90;;;;;;;14.40;100.00;98128.66;5012812;28;20046;-74
2023/06/29 01:35:07;;;;;;;1999.90;999.90;;;;;;;14.37;100.00;98140.31;4995347;28;20398;-75
2023/06/29 01:37:44;;;;;;;1999.90;999.90;;;;;;;14.29;100.00;98135.50;5013039;28;20049;-75
2023/06/29 01:40:13;;;;;;;1999.90;999.90;;;;;;;14.23;100.00;98136.78;5012539;28;20022;-76
2023/06/29 01:42:40;;;;;;;1999.90;999.90;;;;;;;14.14;100.00;98135.91;5012380;28;20483;-75
2023/06/29 01:45:07;;;;;;;1999.90;999.90;;;;;;;14.01;100.00;98129.34;5012690;28;20442;-75
2023/06/29 01:47:33;;;;;;;1999.90;999.90;;;;;;;13.94;100.00;98115.22;5011685;28;20445;-77
2023/06/29 01:50:00;;;;;;;1999.90;999.90;;;;;;;14.00;100.00;98121.44;5012285;28;20029;-74
2023/06/29 01:52:25;;;;;;;1999.90;999.90;;;;;;;13.98;100.00;98124.47;5012525;28;20065;-75
2023/06/29 01:54:51;;;;;;;1999.90;999.90;;;;;;;13.91;100.00;98122.16;4994587;28;20022;-75
2023/06/29 01:57:16;;;;;;;1999.90;999.90;;;;;;;13.98;100.00;98118.16;5012292;28;20394;-75
2023/06/29 01:59:44;;;;;;;1999.90;999.90;;;;;;;14.08;100.00;98118.72;5012221;28;20041;-75
2023/06/29 02:02:09;;;;;;;1999.90;999.90;;;;;;;14.12;100.00;98121.66;4995326;28;20015;-75
2023/06/29 02:04:34;;;;;;;1999.90;999.90;;;;;;;14.34;100.00;98108.72;4992610;28;20070;-76
2023/06/29 02:07:00;;;;;;;1999.90;999.90;;;;;;;14.49;100.00;98124.00;4992980;28;20093;-76
2023/06/29 02:09:25;;;;;;;1999.90;999.90;;;;;;;14.40;100.00;98131.41;4974926;28;20383;-75
2023/06/29 02:11:51;;;;;;;1999.90;999.90;;;;;;;14.31;100.00;98139.59;4992526;28;20120;-76
2023/06/29 02:14:17;;;;;;;1999.90;999.90;;;;;;;14.30;100.00;98131.66;5002026;28;20442;-76
2023/06/29 02:16:43;;;;;;;1999.90;999.90;;;;;;;14.27;100.00;98126.78;5002189;28;20034;-75
2023/06/29 02:19:08;;;;;;;1999.90;999.90;;;;;;;14.25;100.00;98124.31;5001106;28;20030;-75
2023/06/29 02:21:34;;;;;;;1999.90;999.90;;;;;;;14.20;100.00;98124.47;5001221;28;20398;-76
2023/06/29 02:23:59;;;;;;;1999.90;999.90;;;;;;;14.09;100.00;98127.81;4999958;28;20062;-75
2023/06/29 02:26:26;;;;;;;1999.90;999.90;;;;;;;14.04;100.00;98127.91;4997191;28;20069;-76
2023/06/29 02:28:51;;;;;;;1999.90;999.90;;;;;;;13.94;100.00;98131.72;4993058;28;20025;-75
2023/06/29 02:31:17;;;;;;;1999.90;999.90;;;;;;;13.78;100.00;98134.03;5024116;28;20010;-86
2023/06/29 02:33:42;;;;;;;1999.90;999.90;;;;;;;13.71;100.00;98124.59;5021825;28;20031;-86
2023/06/29 02:36:09;;;;;;;1999.90;999.90;;;;;;;13.74;100.00;98134.97;5006953;28;20072;-75
2023/06/29 02:38:34;;;;;;;1999.90;999.90;;;;;;;13.98;100.00;98135.47;5002395;28;20505;-75
2023/06/29 02:41:00;;;;;;;1999.90;999.90;;;;;;;13.90;100.00;98133.50;5006723;28;20022;-76
2023/06/29 02:43:25;;;;;;;1999.90;999.90;;;;;;;13.81;100.00;98138.13;4995662;28;20038;-77
2023/06/29 02:45:50;;;;;;;1999.90;999.90;;;;;;;13.68;100.00;98142.53;4991781;28;20034;-76
2023/06/29 02:48:15;;;;;;;1999.90;999.90;;;;;;;13.71;100.00;98147.41;4991533;28;20030;-75
2023/06/29 02:50:41;;;;;;;1999.90;999.90;;;;;;;13.66;100.00;98141.19;4991485;28;20506;-76
2023/06/29 02:53:06;;;;;;;1999.90;999.90;;;;;;;13.62;100.00;98149.28;4990888;28;20053;-77
2023/06/29 02:55:32;;;;;;;1999.90;999.90;;;;;;;13.57;100.00;98134.81;4991776;28;20023;-76
2023/06/29 02:57:57;;;;;;;1999.90;999.90;;;;;;;13.64;100.00;98144.28;4991810;28;20391;-76
2023/06/29 03:00:23;;;;;;;1999.90;999.90;;;;;;;13.84;100.00;98143.81;4991451;28;20100;-76
2023/06/29 03:02:48;;;;;;;1999.90;999.90;;;;;;;13.93;100.00;98147.44;4974134;28;20034;-77
2023/06/29 03:05:14;;;;;;;1999.90;999.90;;;;;;;14.08;100.00;98137.16;4991579;28;20029;-76
2023/06/29 03:07:39;;;;;;;1999.90;999.90;;;;;;;14.13;100.00;98142.53;4991943;28;20509;-76
2023/06/29 03:10:05;;;;;;;1999.90;999.90;;;;;;;13.88;100.00;98147.53;4991544;28;20108;-77
2023/06/29 03:12:30;;;;;;;1999.90;999.90;;;;;;;13.86;100.00;98133.31;4991782;28;20030;-76
2023/06/29 03:14:56;;;;;;;1999.90;999.90;;;;;;;13.95;100.00;98141.59;4992177;28;20050;-76
2023/06/29 03:17:21;;;;;;;1999.90;999.90;;;;;;;13.88;100.00;98144.78;4974227;28;20037;-76
2023/06/29 03:19:47;;;;;;;1999.90;999.90;;;;;;;13.95;100.00;98147.94;4973935;28;20475;-76
2023/06/29 03:22:12;;;;;;;1999.90;999.90;;;;;;;13.98;100.00;98145.66;4991350;28;20023;-77
2023/06/29 03:24:37;;;;;;;1999.90;999.90;;;;;;;14.12;100.00;98138.19;4991363;28;20038;-76
2023/06/29 03:27:04;;;;;;;1999.90;999.90;;;;;;;14.10;100.00;98132.97;4974027;28;20121;-75
2023/06/29 03:29:30;;;;;;;1999.90;999.90;;;;;;;14.20;100.00;98138.22;4991786;28;20073;-75
2023/06/29 03:31:55;;;;;;;1999.90;999.90;;;;;;;14.69;100.00;98139.97;4991973;28;20038;-77
2023/06/29 03:34:21;;;;;;;1999.90;999.90;;;;;;;15.27;100.00;98128.66;4992330;28;20030;-77
2023/06/29 03:36:46;;;;;;;1999.90;999.90;;;;;;;15.65;100.00;98133.59;4994155;28;20042;-78
2023/06/29 03:39:11;;;;;;;1999.90;999.90;;;;;;;15.78;100.00;98138.97;4991842;28;20066;-79
2023/06/29 03:41:36;;;;;;;1999.90;999.90;;;;;;;16.26;100.00;98146.19;4992147;28;20060;-78
2023/06/29 03:44:02;;;;;;;1999.90;999.90;;;;;;;16.52;100.00;98141.44;4974005;28;20030;-76
2023/06/29 03:46:27;;;;;;;1999.90;999.90;;;;;;;16.92;100.00;98156.59;4990916;28;20054;-77
2023/06/29 03:48:52;;;;;;;1999.90;999.90;;;;;;;17.17;100.00;98151.28;4991157;28;20038;-76
2023/06/29 03:51:18;;;;;;;1999.90;999.90;;;;;;;17.56;100.00;98162.81;4993669;28;20104;-78
2023/06/29 03:53:43;;;;;;;1999.90;999.90;;;;;;;18.10;100.00;98174.78;4983899;28;20497;-77
2023/06/29 03:56:10;;;;;;;1999.90;999.90;;;;;;;18.24;100.00;98166.16;4993545;28;20030;-76
2023/06/29 03:58:36;;;;;;;1999.90;999.90;;;;;;;18.98;100.00;98176.34;4977228;28;20030;-75
2023/06/29 04:01:01;;;;;;;1999.90;999.90;;;;;;;19.06;100.00;98172.63;4971162;28;20046;-75
2023/06/29 04:03:26;;;;;;;1999.90;999.90;;;;;;;19.20;100.00;98162.81;4971192;28;20022;-76
2023/06/29 04:05:51;;;;;;;1999.90;999.90;;;;;;;19.44;100.00;98177.88;4953859;28;20023;-76
2023/06/29 04:08:17;;;;;;;1999.90;999.90;;;;;;;19.98;100.00;98176.41;4972002;28;20912;-76
2023/06/29 04:10:42;;;;;;;1999.90;999.90;;;;;;;19.19;100.00;98172.31;4984666;28;20463;-76
2023/06/29 04:13:07;;;;;;;1999.90;999.90;;;;;;;18.46;100.00;98162.19;4987419;28;20456;-78
2023/06/29 04:15:33;;;;;;;1999.90;999.90;;;;;;;18.18;100.00;98171.09;4969526;28;20435;-77
2023/06/29 04:17:58;;;;;;;1999.90;999.90;;;;;;;18.88;100.00;98174.81;5013751;28;20029;-76
2023/06/29 04:20:24;;;;;;;1999.90;999.90;;;;;;;19.66;100.00;98185.72;5000699;28;20117;-77
2023/06/29 04:22:49;;;;;;;1999.90;999.90;;;;;;;19.45;100.00;98176.72;4994076;28;20103;-77
2023/06/29 04:25:14;;;;;;;1999.90;999.90;;;;;;;19.74;100.00;98176.44;4994193;28;20168;-75
2023/06/29 04:27:41;;;;;;;1999.90;999.90;;;;;;;18.76;100.00;98188.66;4976639;28;20088;-74
2023/06/29 04:30:08;;;;;;;1999.90;999.90;;;;;;;18.11;100.00;98183.84;4994047;28;20042;-76
2023/06/29 04:32:34;;;;;;;1999.90;999.90;;;;;;;17.23;100.00;98174.84;4981247;28;20034;-76
2023/06/29 04:35:01;;;;;;;1999.90;999.90;;;;;;;16.50;100.00;98165.81;4957179;28;20388;-76
2023/06/29 04:37:35;;;;;;;1999.90;999.90;;;;;;;16.06;100.00;98172.53;4974859;28;20403;-74
2023/06/29 04:40:01;;;;;;;1999.90;999.90;;;;;;;15.86;100.00;98173.19;4974562;28;20038;-75
2023/06/29 04:42:30;;;;;;;1999.90;999.90;;;;;;;15.82;100.00;98172.22;4974413;28;20027;-74
2023/06/29 04:44:55;;;;;;;1999.90;999.90;;;;;;;15.92;100.00;98169.94;4974374;28;20030;-75
2023/06/29 04:47:20;;;;;;;1999.90;999.90;;;;;;;16.22;100.00;98170.09;4974192;28;20073;-75
2023/06/29 04:49:46;;;;;;;1999.90;999.90;;;;;;;16.87;100.00;98170.63;4974217;28;20077;-74
2023/06/29 04:52:12;;;;;;;1999.90;999.90;;;;;;;16.98;100.00;98171.84;4974324;28;20050;-75
2023/06/29 04:54:38;;;;;;;1999.90;999.90;;;;;;;16.68;100.00;98167.44;4974263;28;20035;-74
2023/06/29 04:57:03;;;;;;;1999.90;999.90;;;;;;;16.42;100.00;98161.13;4974192;28;20023;-74
2023/06/29 04:59:29;;;;;;;1999.90;999.90;;;;;;;16.53;100.00;98165.16;4986448;28;20032;-75
2023/06/29 05:01:54;;;;;;;1999.90;999.90;;;;;;;16.30;100.00;98170.09;4994039;28;20041;-76
2023/06/29 05:04:19;;;;;;;1999.90;999.90;;;;;;;16.58;100.00;98167.78;4993686;28;20073;-74
2023/06/29 05:06:45;;;;;;;1999.90;999.90;;;;;;;16.57;100.00;98164.19;4989125;28;20022;-75
2023/06/29 05:09:10;;;;;;;1999.90;999.90;;;;;;;16.61;100.00;98153.31;4973092;28;20114;-75
2023/06/29 05:11:36;;;;;;;1999.90;999.90;;;;;;;16.79;100.00;98162.38;4972674;28;20034;-75
2023/06/29 05:14:01;;;;;;;1999.90;999.90;;;;;;;16.82;100.00;98172.75;4989342;28;20084;-76
2023/06/29 05:16:26;;;;;;;1999.90;999.90;;;;;;;17.09;100.00;98167.59;5003503;28;20455;-75
2023/06/29 05:18:52;;;;;;;1999.90;999.90;;;;;;;17.04;100.00;98166.97;5012083;28;20088;-75
2023/06/29 05:21:18;;;;;;;1999.90;999.90;;;;;;;16.50;100.00;98169.41;5012656;28;20026;-75
2023/06/29 05:23:43;;;;;;;1999.90;999.90;;;;;;;16.33;100.00;98171.38;4994894;28;20030;-75
2023/06/29 05:26:08;;;;;;;1999.90;999.90;;;;;;;16.63;100.00;98170.38;5012705;28;20104;-75
2023/06/29 05:28:33;;;;;;;1999.90;999.90;;;;;;;16.84;100.00;98168.50;4994839;28;20036;-75
2023/06/29 05:30:59;;;;;;;1999.90;999.90;;;;;;;17.07;100.00;98169.09;4994960;28;20036;-75
2023/06/29 05:33:24;;;;;;;1999.90;999.90;;;;;;;17.27;100.00;98178.56;5012445;28;20080;-75
2023/06/29 05:35:49;;;;;;;1999.90;999.90;;;;;;;17.40;100.00;98166.44;5012428;28;20033;-75
2023/06/29 05:38:15;;;;;;;1999.90;999.90;;;;;;;17.79;100.00;98173.56;5012888;28;20038;-75
2023/06/29 05:40:40;;;;;;;1999.90;999.90;;;;;;;17.67;100.00;98174.28;5012759;28;20068;-75
2023/06/29 05:43:06;;;;;;;1999.90;999.90;;;;;;;17.47;100.00;98177.81;5014403;28;20037;-75
2023/06/29 05:45:31;;;;;;;1999.90;999.90;;;;;;;17.55;100.00;98180.53;5012706;28;20042;-75
2023/06/29 05:47:56;;;;;;;1999.90;999.90;;;;;;;17.50;100.00;98180.72;5012513;28;20076;-73
2023/06/29 05:50:22;;;;;;;1999.90;999.90;;;;;;;17.07;100.00;98175.38;5011623;28;20081;-74
2023/06/29 05:52:47;;;;;;;1999.90;999.90;;;;;;;17.29;100.00;98177.06;5005444;28;20093;-75
2023/06/29 05:55:12;;;;;;;1999.90;999.90;;;;;;;17.54;100.00;98172.56;4983670;28;20029;-74
2023/06/29 05:57:38;;;;;;;1999.90;999.90;;;;;;;17.66;100.00;98175.44;5003166;28;20010;-74
2023/06/29 06:00:10;;;;;;;1999.90;999.90;;;;;;;17.73;100.00;98175.69;5010593;28;20111;-76
2023/06/29 06:02:37;;;;;;;1999.90;999.90;;;;;;;17.50;100.00;98169.66;5012309;28;20073;-75
2023/06/29 06:05:03;;;;;;;1999.90;999.90;;;;;;;17.92;100.00;98169.69;5011997;28;20037;-74
2023/06/29 06:07:30;;;;;;;1999.90;999.90;;;;;;;17.20;100.00;98172.75;5012590;28;20033;-75
2023/06/29 06:09:56;;;;;;;1999.90;999.90;;;;;;;17.87;100.00;98176.25;5012094;28;20080;-72
2023/06/29 06:12:22;;;;;;;1999.90;999.90;;;;;;;17.81;100.00;98176.78;5012725;28;20038;-70
2023/06/29 06:14:47;;;;;;;1999.90;999.90;;;;;;;17.89;100.00;98173.94;5011943;28;20372;-72
2023/06/29 06:17:13;;;;;;;1999.90;999.90;;;;;;;17.76;100.00;98175.00;5012022;28;20117;-71
2023/06/29 06:19:38;;;;;;;1999.90;999.90;;;;;;;18.02;100.00;98172.88;5012014;28;20049;-71
2023/06/29 06:22:04;;;;;;;1999.90;999.90;;;;;;;18.27;100.00;98186.81;5012072;28;20159;-72
2023/06/29 06:24:29;;;;;;;1999.90;999.90;;;;;;;18.70;100.00;98176.16;4995532;28;20029;-75
2023/06/29 06:26:54;;;;;;;1999.90;999.90;;;;;;;18.55;100.00;98172.06;4994277;28;20038;-73
2023/06/29 06:29:20;;;;;;;1999.90;999.90;;;;;;;18.68;100.00;98179.28;5004028;28;20096;-71
2023/06/29 06:31:45;;;;;;;1999.90;999.90;;;;;;;18.91;100.00;98179.66;5011649;28;20034;-72
2023/06/29 06:34:10;;;;;;;1999.90;999.90;;;;;;;19.14;100.00;98180.84;5011195;28;20034;-71
2023/06/29 06:36:36;;;;;;;1999.90;999.90;;;;;;;19.64;100.00;98185.28;5011563;28;20045;-72
2023/06/29 06:39:01;;;;;;;1999.90;999.90;;;;;;;19.72;100.00;98179.59;5011883;28;20029;-71
2023/06/29 06:41:26;;;;;;;1999.90;999.90;;;;;;;19.45;100.00;98179.50;5011426;28;20588;-71
2023/06/29 06:43:53;;;;;;;1999.90;999.90;;;;;;;19.81;100.00;98185.00;5001149;28;20025;-71
2023/06/29 06:46:18;;;;;;;1999.90;999.90;;;;;;;19.28;100.00;98180.50;4999173;28;20095;-72
2023/06/29 06:48:43;;;;;;;1999.90;999.90;;;;;;;19.21;100.00;98174.72;5000754;28;20062;-72
2023/06/29 06:51:12;;;;;;;1999.90;999.90;;;;;;;19.47;100.00;98177.19;4999251;28;20026;-72
2023/06/29 06:53:37;;;;;;;1999.90;999.90;;;;;;;19.67;100.00;98176.25;5002128;28;20061;-70
2023/06/29 06:56:02;;;;;;;1999.90;999.90;;;;;;;19.58;100.00;98179.13;5010819;28;20069;-72
2023/06/29 06:58:28;;;;;;;1999.90;999.90;;;;;;;19.85;100.00;98176.78;5010638;28;20588;-72
2023/06/29 07:00:53;;;;;;;1999.90;999.90;;;;;;;19.89;100.00;98178.50;5010618;28;20026;-71
2023/06/29 07:03:19;;;;;;;1999.90;999.90;;;;;;;19.83;100.00;98168.78;5011195;28;20037;-71
2023/06/29 07:05:45;;;;;;;1999.90;999.90;;;;;;;20.43;100.00;98173.38;5011096;28;20034;-71
2023/06/29 07:08:10;;;;;;;1999.90;999.90;;;;;;;20.90;100.00;98170.66;5011572;28;20044;-71
2023/06/29 07:10:36;;;;;;;1999.90;999.90;;;;;;;21.12;100.00;98174.84;5010878;28;20029;-71
2023/06/29 07:13:01;;;;;;;1999.90;999.90;;;;;;;20.84;100.00;98172.09;5011045;28;20028;-70
2023/06/29 07:15:26;;;;;;;1999.90;999.90;;;;;;;20.87;100.00;98174.16;5011042;28;20029;-70
2023/06/29 07:17:52;;;;;;;1999.90;999.90;;;;;;;20.82;100.00;98172.47;5010854;28;20057;-70
2023/06/29 07:20:17;;;;;;;1999.90;999.90;;;;;;;20.95;100.00;98167.66;5010959;28;20494;-70
2023/06/29 07:22:42;;;;;;;1999.90;999.90;;;;;;;21.13;100.00;98166.16;5010963;28;20030;-70
2023/06/29 07:25:08;;;;;;;1999.90;999.90;;;;;;;21.24;100.00;98172.78;5010863;28;20034;-71
2023/06/29 07:27:33;;;;;;;1999.90;999.90;;;;;;;21.28;100.00;98159.75;5010999;28;20014;-71
2023/06/29 07:29:59;;;;;;;1999.90;999.90;;;;;;;21.31;100.00;98170.16;5010592;28;20470;-71
2023/06/29 07:32:24;;;;;;;1999.90;999.90;;;;;;;21.48;100.00;98168.19;5010838;28;20036;-72
2023/06/29 07:34:49;;;;;;;1999.90;999.90;;;;;;;21.09;100.00;98165.25;5010972;28;20088;-72
2023/06/29 07:37:15;;;;;;;1999.90;999.90;;;;;;;21.74;100.00;98165.63;5010893;28;20052;-71
2023/06/29 07:39:40;;;;;;;1999.90;999.90;;;;;;;21.84;100.00;98162.25;5010910;28;20141;-71
2023/06/29 07:42:05;;;;;;;1999.90;999.90;;;;;;;21.40;100.00;98163.59;5010770;28;20482;-70
2023/06/29 07:44:31;;;;;;;1999.90;999.90;;;;;;;21.38;100.00;98154.81;4993143;28;20417;-71
2023/06/29 07:46:56;;;;;;;1999.90;999.90;;;;;;;21.34;100.00;98158.31;5012933;28;20069;-72
2023/06/29 07:49:21;;;;;;;1999.90;999.90;;;;;;;21.54;96.97;98156.41;5017675;28;20033;-72
2023/06/29 07:51:48;;;;;;;1999.90;999.90;;;;;;;21.49;93.73;98153.09;5016460;28;20084;-71
2023/06/29 07:54:14;;;;;;;1999.90;999.90;;;;;;;22.21;87.85;98157.13;5014714;28;20562;-71
2023/06/29 07:56:39;;;;;;;1999.90;999.90;;;;;;;22.55;85.24;98163.78;5014490;28;20133;-71
2023/06/29 07:59:04;;;;;;;1999.90;999.90;;;;;;;24.00;77.21;98161.47;4989444;28;20032;-71
2023/06/29 08:01:30;;;;;;;1999.90;999.90;;;;;;;25.99;65.87;98168.75;5005057;28;20022;-71
2023/06/29 08:03:55;;;;;;;1999.90;999.90;;;;;;;28.18;53.97;98168.38;5004896;28;20033;-71
2023/06/29 08:06:21;;;;;;;1999.90;999.90;;;;;;;28.99;48.88;98167.19;5003067;28;20106;-71
2023/06/29 08:08:46;;;;;;;1999.90;999.90;;;;;;;29.15;48.06;98168.31;5005491;28;20026;-72
2023/06/29 08:11:13;;;;;;;1999.90;999.90;;;;;;;28.20;48.73;98163.13;5003534;28;20033;-71
2023/06/29 08:13:39;;;;;;;1999.90;999.90;;;;;;;28.01;49.86;98155.09;5004726;28;20084;-71
2023/06/29 08:16:05;;;;;;;1999.90;999.90;;;;;;;28.73;48.27;98160.09;5003185;28;20030;-71
2023/06/29 08:18:30;;;;;;;1999.90;999.90;;;;;;;28.02;49.27;98156.72;5008264;28;20037;-72
2023/06/29 08:20:55;;;;;;;1999.90;999.90;;;;;;;27.56;50.47;98156.81;5015514;28;20041;-72
2023/06/29 08:23:21;;;;;;;1999.90;999.90;;;;;;;27.63;49.39;98154.75;5003550;28;20359;-73
2023/06/29 08:25:46;;;;;;;1999.90;999.90;;;;;;;27.76;50.14;98163.59;4976601;28;20035;-73
2023/06/29 08:28:12;;;;;;;1999.90;999.90;;;;;;;28.78;48.27;98156.06;4993760;28;20088;-74
2023/06/29 08:30:37;;;;;;;1999.90;999.90;;;;;;;28.54;47.44;98155.75;4996153;28;20030;-74
2023/06/29 08:33:03;;;;;;;1999.90;999.90;;;;;;;30.71;42.51;98161.97;4994602;28;20026;-73
2023/06/29 08:35:28;;;;;;;1999.90;999.90;;;;;;;31.35;41.09;98169.53;4977514;28;20077;-73
2023/06/29 08:37:54;;;;;;;1999.90;999.90;;;;;;;30.49;42.50;98160.63;4995214;28;20042;-73
2023/06/29 08:40:22;;;;;;;1999.90;999.90;;;;;;;30.78;42.60;98155.41;4994617;28;20783;-73
2023/06/29 08:42:48;;;;;;;1999.90;999.90;;;;;;;29.71;45.29;98147.31;5004147;28;20015;-73
2023/06/29 08:45:13;;;;;;;1999.90;999.90;;;;;;;30.86;42.26;98167.41;4993724;28;20030;-73
2023/06/29 08:47:41;;;;;;;1999.90;999.90;;;;;;;31.00;42.63;98151.09;4993240;28;20391;-73
2023/06/29 08:50:09;;;;;;;1999.90;999.90;;;;;;;31.17;40.83;98158.50;4998799;28;20030;-73
2023/06/29 08:52:35;;;;;;;1999.90;999.90;;;;;;;31.89;39.02;98155.31;5000439;28;20137;-74
2023/06/29 08:55:01;;;;;;;1999.90;999.90;;;;;;;29.51;43.99;98143.47;4994550;28;20021;-73
2023/06/29 08:57:28;;;;;;;1999.90;999.90;;;;;;;31.13;40.80;98154.13;4993018;28;20034;-73
2023/06/29 08:59:53;;;;;;;1999.90;999.90;;;;;;;31.52;39.81;98154.31;4975194;28;20414;-73
2023/06/29 09:02:19;;;;;;;1999.90;999.90;;;;;;;31.96;38.79;98155.97;4993128;28;20082;-73
2023/06/29 09:04:44;;;;;;;1999.90;999.90;;;;;;;33.11;35.30;98156.09;4993140;28;20036;-72
2023/06/29 09:07:10;;;;;;;1999.90;999.90;;;;;;;32.10;36.72;98149.28;4975577;28;20422;-72
2023/06/29 09:09:35;;;;;;;1999.90;999.90;;;;;;;33.59;34.46;98147.59;4993095;28;20034;-72
2023/06/29 09:12:01;;;;;;;1999.90;999.90;;;;;;;33.35;34.43;98143.34;4992683;28;20030;-72
2023/06/29 09:14:28;;;;;;;1999.90;999.90;;;;;;;33.91;33.10;98144.75;4992690;28;20022;-72
2023/06/29 09:16:58;;;;;;;1999.90;999.90;;;;;;;32.61;33.43;98140.13;4993008;28;20065;-72
2023/06/29 09:19:25;;;;;;;1999.90;999.90;;;;;;;31.05;33.19;98144.13;4997587;28;20022;-71
2023/06/29 09:21:51;;;;;;;1999.90;999.90;;;;;;;30.95;33.14;98128.94;4994615;28;20088;-73
2023/06/29 09:24:20;;;;;;;1999.90;999.90;;;;;;;31.50;31.54;98139.00;4992328;28;20030;-71
2023/06/29 09:26:53;;;;;;;1999.90;999.90;;;;;;;32.17;30.66;98140.66;4992636;28;20022;-72
2023/06/29 09:29:18;;;;;;;1999.90;999.90;;;;;;;32.08;31.29;98134.75;4992289;28;20069;-73
2023/06/29 09:31:56;;;;;;;1999.90;999.90;;;;;;;32.72;30.54;98137.09;4992474;28;20069;-72
2023/06/29 09:34:25;;;;;;;1999.90;999.90;;;;;;;33.80;29.28;98134.94;4976537;28;20292;-72
2023/06/29 09:36:51;;;;;;;1999.90;999.90;;;;;;;35.04;25.70;98132.16;4992487;28;20054;-73
2023/06/29 09:39:18;;;;;;;1999.90;999.90;;;;;;;33.67;27.71;98119.84;4992658;28;20491;-73
2023/06/29 09:41:51;;;;;;;1999.90;999.90;;;;;;;32.74;28.95;98115.56;4958814;28;20038;-73
2023/06/29 09:44:21;;;;;;;1999.90;999.90;;;;;;;33.57;26.39;98127.38;4992320;28;20030;-72
2023/06/29 09:46:52;;;;;;;1999.90;999.90;;;;;;;32.00;26.90;98119.09;4992339;28;20026;-72
2023/06/29 09:49:18;;;;;;;1999.90;999.90;;;;;;;32.10;26.93;98120.97;4992036;28;20018;-73
2023/06/29 09:51:44;;;;;;;1999.90;999.90;;;;;;;32.31;28.39;98106.34;4992221;28;20339;-72
2023/06/29 09:54:14;;;;;;;1999.90;999.90;;;;;;;32.33;28.22;98107.50;4991924;28;20045;-72
2023/06/29 09:56:41;;;;;;;1999.90;999.90;;;;;;;32.66;27.44;98110.50;4992545;28;20018;-72
2023/06/29 09:59:10;;;;;;;1999.90;999.90;;;;;;;33.24;27.42;98103.88;5002350;28;20029;-72
2023/06/29 10:01:36;;;;;;;1999.90;999.90;;;;;;;33.00;27.05;98104.44;4994799;28;20062;-72
2023/06/29 10:04:04;;;;;;;1999.90;999.90;;;;;;;34.68;25.15;98104.03;4992159;28;20058;-71
2023/06/29 10:06:43;;;;;;;1999.90;999.90;;;;;;;33.27;26.42;98105.81;4991841;28;20081;-71
2023/06/29 10:09:14;;;;;;;1999.90;999.90;;;;;;;29.70;29.66;98086.47;4991321;28;20387;-72
2023/06/29 10:11:41;;;;;;;1999.90;999.90;;;;;;;30.23;29.28;98085.09;4991553;28;20034;-71
2023/06/29 10:14:08;;;;;;;1999.90;999.90;;;;;;;30.80;28.14;98091.59;4991923;28;20030;-71
2023/06/29 10:16:44;;;;;;;1999.90;999.90;;;;;;;32.33;27.44;98090.50;4974425;28;20092;-72
2023/06/29 10:19:18;;;;;;;1999.90;999.90;;;;;;;32.88;26.67;98086.91;4987149;28;20069;-70
2023/06/29 10:21:45;;;;;;;1999.90;999.90;;;;;;;33.39;25.79;98075.97;4986535;28;20081;-71
2023/06/29 10:24:15;;;;;;;1999.90;999.90;;;;;;;34.39;24.78;98089.06;4991429;28;20404;-72
2023/06/29 10:26:41;;;;;;;1999.90;999.90;;;;;;;33.29;25.89;98077.03;4991615;28;20030;-72
2023/06/29 10:29:07;;;;;;;1999.90;999.90;;;;;;;33.99;26.05;98080.00;4991373;28;20089;-72
2023/06/29 10:31:33;;;;;;;1999.90;999.90;;;;;;;33.99;25.37;98079.25;4990989;28;20034;-72
2023/06/29 10:33:58;;;;;;;1999.90;999.90;;;;;;;33.21;26.35;98065.03;4991300;28;20022;-71
2023/06/29 10:36:24;;;;;;;1999.90;999.90;;;;;;;31.52;27.93;98063.00;4991393;28;20046;-71
2023/06/29 10:38:50;;;;;;;1999.90;999.90;;;;;;;31.00;29.66;98063.47;4991421;28;20062;-70
2023/06/29 10:41:27;;;;;;;1999.90;999.90;;;;;;;29.45;32.21;98045.63;4991373;28;20029;-71
2023/06/29 10:44:00;;;;;;;1999.90;999.90;;;;;;;27.67;34.36;98029.03;4991586;28;20436;-72
2023/06/29 10:46:46;;;;;;;1999.90;999.90;;;;;;;27.33;36.19;98025.09;4976333;28;20078;-72